Overpelt, Belgium
Current Conditions -  °F | °C
As of 11:13 PM on Tuesday 21 Oct 2014 (Local Time) from EBBL Reporting Station
Rain Showers Rain Showers  
Wind Chill: 40°   Ceiling: 9000
Heat Index: 46°   Visibility: 5mi
Dew Point: 39°   Wind: 16mph
Humidity: 76%   Direction: 290°WNW
Pressure: 29.83"   Gusts: 35mph
Location:  51.21°N, 5.42°E
Report Text: EBBL 212113Z 29014G30KT 8000 -SHRA FEW030TCU SCT050 BKN090 08/04 Q1010 BLU
Loading
Personal Weather Stations






























Interactive Weather Map
Tropical Storm Tracking
New forecast layout! Learn more

10-Day Weather Forecast

Advertisements
Track Severe Weather on mobile